createdAt,value
2017-11-26T00:00:29.432Z,0
2017-11-26T00:01:44.102Z,0
2017-11-26T00:02:29.420Z,0
2017-11-26T00:03:29.434Z,0
2017-11-26T00:04:29.452Z,0
2017-11-26T00:05:44.147Z,0
2017-11-26T00:06:44.164Z,0
2017-11-26T00:07:44.155Z,0
2017-11-26T00:08:43.904Z,0
2017-11-26T00:09:29.553Z,0
2017-11-26T00:10:29.524Z,0
2017-11-26T00:11:44.456Z,0
2017-11-26T00:12:29.298Z,0
2017-11-26T00:13:29.622Z,0
2017-11-26T00:14:44.286Z,0
2017-11-26T00:15:29.632Z,0
2017-11-26T00:16:44.283Z,0
2017-11-26T00:17:29.644Z,0
2017-11-26T00:18:29.680Z,0
2017-11-26T00:19:29.673Z,0
2017-11-26T00:21:29.733Z,0
2017-11-26T00:22:29.466Z,0
2017-11-26T00:23:29.772Z,0
2017-11-26T00:24:29.876Z,0
2017-11-26T00:25:29.746Z,0
2017-11-26T00:26:29.818Z,0
2017-11-26T00:27:44.454Z,0
2017-11-26T00:28:44.443Z,0
2017-11-26T00:29:44.504Z,0
2017-11-26T00:30:44.501Z,0
2017-11-26T00:31:29.595Z,0
2017-11-26T00:32:44.540Z,0
2017-11-26T00:33:29.641Z,0
2017-11-26T00:34:29.396Z,0
2017-11-26T00:35:29.930Z,0
2017-11-26T00:37:29.945Z,0
2017-11-26T00:38:44.627Z,0
2017-11-26T00:39:30.000Z,0
2017-11-26T00:40:44.646Z,0
2017-11-26T00:41:44.699Z,0
2017-11-26T00:42:30.033Z,0
2017-11-26T00:43:44.411Z,0
2017-11-26T00:44:44.217Z,0
2017-11-26T00:45:30.043Z,0
2017-11-26T00:46:30.084Z,0
2017-11-26T00:47:30.120Z,0
2017-11-26T00:48:30.102Z,0
2017-11-26T00:49:30.087Z,0
2017-11-26T00:50:44.841Z,0
2017-11-26T00:51:30.169Z,0
2017-11-26T00:52:30.162Z,0
2017-11-26T00:53:30.188Z,0
2017-11-26T00:54:29.926Z,0
2017-11-26T00:55:29.966Z,0
2017-11-26T00:56:30.229Z,0
2017-11-26T00:57:30.226Z,0
2017-11-26T00:58:30.278Z,0
2017-11-26T00:59:44.946Z,0
2017-11-26T01:00:30.338Z,0
2017-11-26T01:01:30.311Z,0
2017-11-26T01:03:30.362Z,0
2017-11-26T01:04:30.337Z,0
2017-11-26T01:05:30.415Z,0
2017-11-26T01:06:30.399Z,0
2017-11-26T01:07:30.126Z,0
2017-11-26T01:08:30.546Z,0
2017-11-26T01:09:30.148Z,0
2017-11-26T01:10:30.440Z,0
2017-11-26T01:11:45.130Z,0
2017-11-26T01:12:30.447Z,0
2017-11-26T01:13:30.465Z,0
2017-11-26T01:14:45.158Z,0
2017-11-26T01:15:30.540Z,0
2017-11-26T01:16:30.494Z,0
2017-11-26T01:17:30.565Z,0
2017-11-26T01:18:30.562Z,0
2017-11-26T01:19:30.607Z,0
2017-11-26T01:20:45.020Z,0
2017-11-26T01:21:30.598Z,0
2017-11-26T01:22:30.383Z,0
2017-11-26T01:23:30.637Z,0
2017-11-26T01:24:30.412Z,0
2017-11-26T01:25:45.322Z,0
2017-11-26T01:26:45.339Z,0
2017-11-26T01:27:30.400Z,0
2017-11-26T01:28:30.720Z,0
2017-11-26T01:29:30.731Z,0
2017-11-26T01:30:30.525Z,0
2017-11-26T01:31:30.788Z,0
2017-11-26T01:32:30.794Z,0
2017-11-26T01:33:30.861Z,0
2017-11-26T01:34:30.806Z,0
2017-11-26T01:35:30.802Z,0
2017-11-26T01:36:30.839Z,0
2017-11-26T01:37:30.868Z,0
2017-11-26T01:38:30.913Z,0
2017-11-26T01:39:45.516Z,0
2017-11-26T01:40:45.557Z,0
2017-11-26T01:41:30.932Z,0
2017-11-26T01:42:30.908Z,0
2017-11-26T01:43:30.939Z,0
2017-11-26T01:44:30.696Z,0
2017-11-26T01:45:30.954Z,0
2017-11-26T01:46:45.662Z,0
2017-11-26T01:47:31.009Z,0
2017-11-26T01:48:45.457Z,0
2017-11-26T01:49:31.022Z,0
2017-11-26T01:50:30.833Z,0
2017-11-26T01:51:31.105Z,0
2017-11-26T01:52:45.761Z,0
2017-11-26T01:53:45.772Z,0
2017-11-26T01:54:45.808Z,0
2017-11-26T01:55:31.142Z,0
2017-11-26T01:56:31.137Z,0
2017-11-26T01:57:31.161Z,0
2017-11-26T01:58:31.159Z,0
2017-11-26T01:59:30.931Z,0
2017-11-26T02:00:31.186Z,0
2017-11-26T02:01:45.858Z,0
2017-11-26T02:02:45.936Z,0
2017-11-26T02:03:31.272Z,0
2017-11-26T02:04:30.755Z,0
2017-11-26T02:05:31.026Z,0
2017-11-26T02:06:45.959Z,0
2017-11-26T02:07:31.297Z,0
2017-11-26T02:08:31.334Z,0
2017-11-26T02:09:31.343Z,0
2017-11-26T02:10:31.404Z,0
2017-11-26T02:11:31.391Z,0
2017-11-26T02:12:31.349Z,0
2017-11-26T02:13:31.369Z,0
2017-11-26T02:14:31.412Z,0
2017-11-26T02:15:31.442Z,0
2017-11-26T02:16:31.439Z,0
2017-11-26T02:17:31.441Z,0
2017-11-26T02:18:46.131Z,0
2017-11-26T02:19:31.482Z,0
2017-11-26T02:20:31.004Z,0
2017-11-26T02:21:45.634Z,0
2017-11-26T02:22:31.258Z,0
2017-11-26T02:23:31.519Z,0
2017-11-26T02:24:31.524Z,0
2017-11-26T02:25:31.552Z,0
2017-11-26T02:26:31.582Z,0
2017-11-26T02:27:46.280Z,0
2017-11-26T02:28:31.592Z,0
2017-11-26T02:30:00.698Z,0
2017-11-26T02:31:31.670Z,0
2017-11-26T02:32:31.662Z,0
2017-11-26T02:33:31.729Z,0
2017-11-26T02:34:46.404Z,0
2017-11-26T02:35:31.718Z,0
2017-11-26T02:36:31.710Z,0
2017-11-26T02:37:31.750Z,0
2017-11-26T02:38:46.460Z,0
2017-11-26T02:39:31.557Z,0
2017-11-26T02:40:31.561Z,0
2017-11-26T02:43:31.567Z,0
2017-11-26T02:44:31.875Z,0
2017-11-26T02:45:31.936Z,0
2017-11-26T02:47:31.921Z,0
2017-11-26T02:48:31.919Z,0
2017-11-26T02:50:31.693Z,0
2017-11-26T02:51:31.985Z,0
2017-11-26T02:52:31.953Z,0
2017-11-26T02:53:31.751Z,0
2017-11-26T02:54:31.981Z,0
2017-11-26T02:56:46.709Z,0
2017-11-26T02:57:32.184Z,0
2017-11-26T02:58:32.069Z,0
2017-11-26T02:59:31.803Z,0
2017-11-26T03:00:32.048Z,0
2017-11-26T03:01:32.081Z,0
2017-11-26T03:02:32.110Z,0
2017-11-26T03:03:32.128Z,0
2017-11-26T03:04:32.167Z,0
2017-11-26T03:05:32.126Z,0
2017-11-26T03:06:32.185Z,0
2017-11-26T03:07:32.287Z,0
2017-11-26T03:08:32.213Z,0
2017-11-26T03:09:32.282Z,0
2017-11-26T03:10:31.986Z,0
2017-11-26T03:11:32.295Z,0
2017-11-26T03:12:32.241Z,0
2017-11-26T03:13:32.271Z,0
2017-11-26T03:14:32.244Z,0
2017-11-26T03:15:32.286Z,0
2017-11-26T03:16:32.378Z,0
2017-11-26T03:17:32.338Z,0
2017-11-26T03:18:32.366Z,0
2017-11-26T03:19:47.065Z,0
2017-11-26T03:20:32.352Z,0
2017-11-26T03:21:47.092Z,0
2017-11-26T03:22:32.404Z,0
2017-11-26T03:23:32.450Z,0
2017-11-26T03:24:32.182Z,0
2017-11-26T03:26:32.218Z,0
2017-11-26T03:27:32.498Z,0
2017-11-26T03:28:46.881Z,0
2017-11-26T03:29:32.497Z,0
2017-11-26T03:30:32.509Z,0
2017-11-26T03:31:32.585Z,0
2017-11-26T03:32:32.304Z,0
2017-11-26T03:33:32.522Z,0
2017-11-26T03:34:32.627Z,0
2017-11-26T03:35:47.285Z,0
2017-11-26T03:36:32.622Z,0
2017-11-26T03:37:47.300Z,0
2017-11-26T03:38:32.227Z,0
2017-11-26T03:39:32.777Z,0
2017-11-26T03:40:32.417Z,0
2017-11-26T03:41:32.675Z,0
2017-11-26T03:42:32.712Z,0
2017-11-26T03:43:32.697Z,0
2017-11-26T03:44:32.434Z,0
2017-11-26T03:45:32.733Z,0
2017-11-26T03:47:32.811Z,0
2017-11-26T03:48:47.431Z,0
2017-11-26T03:49:32.778Z,0
2017-11-26T03:50:32.560Z,0
2017-11-26T03:51:32.834Z,0
2017-11-26T03:52:32.855Z,0
2017-11-26T03:53:47.558Z,0
2017-11-26T03:54:47.571Z,0
2017-11-26T03:55:32.898Z,0
2017-11-26T03:56:32.898Z,0
2017-11-26T03:57:47.568Z,0
2017-11-26T03:58:47.603Z,0
2017-11-26T03:59:32.919Z,0
2017-11-26T04:00:33.006Z,0
2017-11-26T04:01:33.000Z,0
2017-11-26T04:02:32.683Z,0
2017-11-26T04:03:47.647Z,0
2017-11-26T04:04:32.770Z,0
2017-11-26T04:05:33.036Z,0
2017-11-26T04:06:33.063Z,0
2017-11-26T04:07:33.031Z,0
2017-11-26T04:08:33.123Z,0
2017-11-26T04:10:47.804Z,0
2017-11-26T04:11:33.135Z,0
2017-11-26T04:12:47.821Z,0
2017-11-26T04:14:33.173Z,0
2017-11-26T04:15:33.164Z,0
2017-11-26T04:16:33.164Z,0
2017-11-26T04:17:33.190Z,0
2017-11-26T04:18:33.211Z,0
2017-11-26T04:19:33.239Z,0
2017-11-26T04:20:32.972Z,0
2017-11-26T04:22:33.278Z,0
2017-11-26T04:23:33.299Z,0
2017-11-26T04:24:47.996Z,0
2017-11-26T04:25:33.328Z,0
2017-11-26T04:26:33.423Z,0
2017-11-26T04:27:33.422Z,0
2017-11-26T04:29:33.419Z,0
2017-11-26T04:30:33.374Z,0
2017-11-26T04:31:33.426Z,0
2017-11-26T04:32:33.441Z,0
2017-11-26T04:33:33.176Z,0
2017-11-26T04:34:33.482Z,0
2017-11-26T04:36:48.162Z,0
2017-11-26T04:37:33.453Z,0
2017-11-26T04:38:33.528Z,0
2017-11-26T04:39:33.516Z,0
2017-11-26T04:40:33.546Z,0
2017-11-26T04:41:33.538Z,0
2017-11-26T04:42:33.287Z,0
2017-11-26T04:43:48.201Z,0
2017-11-26T04:44:33.544Z,0
2017-11-26T04:45:33.366Z,0
2017-11-26T04:46:33.628Z,0
2017-11-26T04:47:33.622Z,0
2017-11-26T04:48:33.707Z,0
2017-11-26T04:49:33.484Z,0
2017-11-26T04:50:33.691Z,0
2017-11-26T04:51:33.683Z,0
2017-11-26T04:52:33.807Z,0
2017-11-26T04:53:33.730Z,0
2017-11-26T04:54:33.245Z,0
2017-11-26T04:55:33.772Z,0
2017-11-26T04:56:48.146Z,0
2017-11-26T04:57:33.790Z,0
2017-11-26T04:58:33.778Z,0
2017-11-26T04:59:33.826Z,0
2017-11-26T05:00:33.823Z,0
2017-11-26T05:01:33.873Z,0
2017-11-26T05:02:33.843Z,0
2017-11-26T05:03:33.868Z,0
2017-11-26T05:04:33.884Z,0
2017-11-26T05:05:48.607Z,0
2017-11-26T05:06:33.933Z,0
2017-11-26T05:07:33.661Z,0
2017-11-26T05:08:33.666Z,0
2017-11-26T05:09:48.629Z,0
2017-11-26T05:10:33.926Z,0
2017-11-26T05:11:33.979Z,0
2017-11-26T05:12:48.609Z,0
2017-11-26T05:13:33.961Z,0
2017-11-26T05:14:48.674Z,0
2017-11-26T05:15:33.983Z,0
2017-11-26T05:16:33.841Z,0
2017-11-26T05:17:34.049Z,0
2017-11-26T05:18:33.813Z,0
2017-11-26T05:19:48.737Z,0
2017-11-26T05:20:34.104Z,0
2017-11-26T05:21:34.079Z,0
2017-11-26T05:22:34.125Z,0
2017-11-26T05:23:34.171Z,0
2017-11-26T05:24:34.127Z,0
2017-11-26T05:25:48.834Z,0
2017-11-26T05:26:34.174Z,0
2017-11-26T05:27:34.188Z,0
2017-11-26T05:29:03.280Z,0
2017-11-26T05:29:33.969Z,0
2017-11-26T05:30:34.213Z,0
2017-11-26T05:31:33.992Z,0
2017-11-26T05:32:34.229Z,0
2017-11-26T05:33:34.228Z,0
2017-11-26T05:34:34.292Z,0
2017-11-26T05:35:34.327Z,0
2017-11-26T05:36:34.111Z,0
2017-11-26T05:37:34.331Z,0
2017-11-26T05:38:34.326Z,0
2017-11-26T05:39:34.087Z,0
2017-11-26T05:40:34.119Z,0
2017-11-26T05:41:34.396Z,0
2017-11-26T05:42:34.269Z,0
2017-11-26T05:43:49.061Z,0
2017-11-26T05:44:49.078Z,0
2017-11-26T05:45:34.423Z,0
2017-11-26T05:46:34.449Z,0
2017-11-26T05:47:34.432Z,0
2017-11-26T05:48:34.222Z,0
2017-11-26T05:49:34.498Z,0
2017-11-26T05:50:34.277Z,0
2017-11-26T05:51:34.516Z,0
2017-11-26T05:52:34.287Z,0
2017-11-26T05:53:49.234Z,0
2017-11-26T05:54:34.295Z,0
2017-11-26T05:55:49.260Z,0
2017-11-26T05:56:34.615Z,0
2017-11-26T05:57:34.613Z,0
2017-11-26T05:58:34.676Z,0
2017-11-26T05:59:49.290Z,0
2017-11-26T06:00:34.671Z,0
2017-11-26T06:01:49.039Z,0
2017-11-26T06:02:34.675Z,0
2017-11-26T06:03:34.410Z,0
2017-11-26T06:04:49.402Z,0
2017-11-26T06:05:34.735Z,0
2017-11-26T06:06:34.732Z,0
2017-11-26T06:07:34.767Z,0
2017-11-26T06:09:49.467Z,0
2017-11-26T06:10:49.441Z,0
2017-11-26T06:11:49.227Z,0
2017-11-26T06:13:34.567Z,0
2017-11-26T06:14:34.869Z,0
2017-11-26T06:15:34.851Z,0
2017-11-26T06:16:35.007Z,0
2017-11-26T06:17:34.895Z,0
2017-11-26T06:18:34.910Z,0
2017-11-26T06:19:34.899Z,0
2017-11-26T06:20:34.653Z,0
2017-11-26T06:22:34.690Z,0
2017-11-26T06:23:34.994Z,0
2017-11-26T06:24:34.971Z,0
2017-11-26T06:26:35.022Z,0
2017-11-26T06:27:34.982Z,0
2017-11-26T06:28:49.713Z,0
2017-11-26T06:29:35.059Z,0
2017-11-26T06:31:49.734Z,0
2017-11-26T06:32:34.867Z,0
2017-11-26T06:33:35.126Z,0
2017-11-26T06:34:35.217Z,0
2017-11-26T06:35:35.131Z,0
2017-11-26T06:36:35.161Z,0
2017-11-26T06:37:35.291Z,0
2017-11-26T06:38:34.932Z,0
2017-11-26T06:39:34.935Z,0
2017-11-26T06:41:35.279Z,0
2017-11-26T06:42:35.268Z,0
2017-11-26T06:43:35.024Z,0
2017-11-26T06:44:49.950Z,0
2017-11-26T06:45:35.266Z,0
2017-11-26T06:46:35.295Z,0
2017-11-26T06:47:49.991Z,0
2017-11-26T06:48:35.342Z,0
2017-11-26T06:49:35.324Z,0
2017-11-26T06:50:35.348Z,0
2017-11-26T06:51:35.361Z,0
2017-11-26T06:52:35.410Z,0
2017-11-26T06:53:35.352Z,0
2017-11-26T06:54:35.390Z,0
2017-11-26T06:55:35.474Z,0
2017-11-26T06:57:35.451Z,0
2017-11-26T06:58:35.478Z,0
2017-11-26T06:59:50.185Z,0
2017-11-26T07:00:50.147Z,0
2017-11-26T07:01:35.538Z,0
2017-11-26T07:02:35.531Z,0
2017-11-26T07:03:49.933Z,5
2017-11-26T07:04:35.547Z,5
2017-11-26T07:05:49.953Z,5
2017-11-26T07:06:35.574Z,5
2017-11-26T07:07:35.619Z,5
2017-11-26T07:08:35.594Z,5
2017-11-26T07:10:35.637Z,5
2017-11-26T07:11:35.705Z,5
2017-11-26T07:12:50.297Z,5
2017-11-26T07:13:35.638Z,5
2017-11-26T07:14:50.088Z,5
2017-11-26T07:15:35.448Z,5
2017-11-26T07:17:35.740Z,5
2017-11-26T07:18:35.772Z,5
2017-11-26T07:19:49.923Z,5
2017-11-26T07:20:35.777Z,5
2017-11-26T07:21:35.813Z,5
2017-11-26T07:22:35.789Z,10
2017-11-26T07:23:50.501Z,10
2017-11-26T07:24:35.867Z,10
2017-11-26T07:25:50.496Z,10
2017-11-26T07:26:35.876Z,10
2017-11-26T07:29:35.640Z,15
2017-11-26T07:30:50.558Z,20
2017-11-26T07:31:35.903Z,25
2017-11-26T07:32:35.947Z,30
2017-11-26T07:33:35.990Z,30
2017-11-26T07:35:05.281Z,35
2017-11-26T07:35:36.016Z,35
2017-11-26T07:36:50.394Z,40
2017-11-26T07:37:50.667Z,45
2017-11-26T07:40:05.400Z,45
2017-11-26T07:40:35.821Z,45
2017-11-26T07:41:36.054Z,45
2017-11-26T07:42:50.764Z,45
2017-11-26T07:43:36.088Z,45
2017-11-26T07:44:36.145Z,50
2017-11-26T07:45:36.165Z,50
2017-11-26T07:46:36.188Z,50
2017-11-26T07:47:36.148Z,55
2017-11-26T07:48:36.173Z,55
2017-11-26T07:49:36.299Z,45
2017-11-26T07:50:36.205Z,40
2017-11-26T07:51:36.217Z,40
2017-11-26T07:52:36.022Z,40
2017-11-26T07:53:36.284Z,30
2017-11-26T07:54:36.376Z,25
2017-11-26T07:55:36.277Z,25
2017-11-26T07:56:36.295Z,25
2017-11-26T07:57:36.110Z,30
2017-11-26T07:58:36.330Z,30
2017-11-26T07:59:36.376Z,25
2017-11-26T08:00:36.089Z,25
2017-11-26T08:01:36.417Z,20
2017-11-26T08:03:36.411Z,20
2017-11-26T08:04:36.410Z,20
2017-11-26T08:05:36.505Z,20
2017-11-26T08:06:51.095Z,20
2017-11-26T08:07:36.431Z,15
2017-11-26T08:08:36.453Z,15
2017-11-26T08:10:36.496Z,20
2017-11-26T08:11:36.506Z,20
2017-11-26T08:12:36.510Z,20
2017-11-26T08:13:36.306Z,25
2017-11-26T08:14:36.561Z,25
2017-11-26T08:15:36.595Z,30
2017-11-26T08:16:36.582Z,35
2017-11-26T08:17:36.585Z,45
2017-11-26T08:18:36.409Z,70
2017-11-26T08:19:36.665Z,80
2017-11-26T08:20:36.645Z,90
2017-11-26T08:21:36.678Z,90
2017-11-26T08:22:51.331Z,95
2017-11-26T08:23:36.826Z,90
2017-11-26T08:24:51.394Z,85
2017-11-26T08:25:51.389Z,95
2017-11-26T08:26:36.742Z,95
2017-11-26T08:27:36.487Z,95
2017-11-26T08:28:36.483Z,100
2017-11-26T08:29:36.736Z,95
2017-11-26T08:30:36.779Z,95
2017-11-26T08:31:36.934Z,100
2017-11-26T08:32:36.854Z,95
2017-11-26T08:33:36.853Z,95
2017-11-26T08:34:36.853Z,90
2017-11-26T08:35:51.300Z,95
2017-11-26T08:36:36.873Z,95
2017-11-26T08:37:36.861Z,80
2017-11-26T08:38:51.331Z,85
2017-11-26T08:39:36.951Z,95
2017-11-26T08:40:36.971Z,95
2017-11-26T08:41:36.979Z,95
2017-11-26T08:42:36.696Z,95
2017-11-26T08:43:36.727Z,95
2017-11-26T08:44:51.675Z,95
2017-11-26T08:45:36.757Z,95
2017-11-26T08:46:37.026Z,95
2017-11-26T08:47:37.028Z,100
2017-11-26T08:48:37.048Z,100
2017-11-26T08:49:37.105Z,95
2017-11-26T08:50:37.208Z,95
2017-11-26T08:51:36.578Z,105
2017-11-26T08:53:37.194Z,125
2017-11-26T08:54:51.558Z,95
2017-11-26T08:55:37.182Z,85
2017-11-26T08:56:36.931Z,65
2017-11-26T08:57:51.888Z,55
2017-11-26T08:58:36.977Z,55
2017-11-26T08:59:51.662Z,50
2017-11-26T09:00:36.980Z,50
2017-11-26T09:01:51.662Z,50
2017-11-26T09:02:37.331Z,45
2017-11-26T09:03:37.295Z,45
2017-11-26T09:04:37.296Z,50
2017-11-26T09:05:37.061Z,50
2017-11-26T09:06:37.373Z,50
2017-11-26T09:07:51.774Z,50
2017-11-26T09:08:37.438Z,45
2017-11-26T09:10:06.727Z,45
2017-11-26T09:10:37.399Z,45
2017-11-26T09:11:37.204Z,45
2017-11-26T09:12:37.440Z,45
2017-11-26T09:13:37.459Z,45
2017-11-26T09:14:37.455Z,45
2017-11-26T09:15:37.503Z,50
2017-11-26T09:16:37.511Z,50
2017-11-26T09:17:52.157Z,50
2017-11-26T09:18:52.204Z,55
2017-11-26T09:19:37.571Z,55
2017-11-26T09:20:37.576Z,60
2017-11-26T09:21:37.585Z,65
2017-11-26T09:22:37.586Z,70
2017-11-26T09:23:37.073Z,70
2017-11-26T09:24:52.024Z,75
2017-11-26T09:25:37.692Z,70
2017-11-26T09:26:37.408Z,75
2017-11-26T09:27:52.329Z,65
2017-11-26T09:28:37.726Z,65
2017-11-26T09:29:37.513Z,60
2017-11-26T09:30:52.418Z,55
2017-11-26T09:31:37.458Z,55
2017-11-26T09:32:37.759Z,55
2017-11-26T09:33:37.534Z,55
2017-11-26T09:34:37.814Z,55
2017-11-26T09:35:37.860Z,60
2017-11-26T09:36:37.542Z,55
2017-11-26T09:37:37.864Z,50
2017-11-26T09:38:37.828Z,45
2017-11-26T09:39:37.613Z,45
2017-11-26T09:40:37.627Z,45
2017-11-26T09:41:52.544Z,45
2017-11-26T09:42:52.326Z,45
2017-11-26T09:43:37.924Z,45
2017-11-26T09:44:37.975Z,40
2017-11-26T09:46:37.709Z,40
2017-11-26T09:47:37.714Z,40
2017-11-26T09:48:37.737Z,40
2017-11-26T09:49:37.999Z,40
2017-11-26T09:51:38.081Z,45
2017-11-26T09:52:38.107Z,50
2017-11-26T09:53:37.826Z,50
2017-11-26T09:54:38.081Z,60
2017-11-26T09:55:37.889Z,70
2017-11-26T09:56:37.884Z,75
2017-11-26T09:57:52.583Z,70
2017-11-26T09:58:38.171Z,70
2017-11-26T09:59:37.912Z,65
2017-11-26T10:00:38.183Z,65
2017-11-26T10:01:38.225Z,55
2017-11-26T10:02:37.976Z,50
2017-11-26T10:03:52.682Z,40
2017-11-26T10:04:38.249Z,40
2017-11-26T10:05:38.337Z,40
2017-11-26T10:06:53.009Z,35
2017-11-26T10:07:38.049Z,30
2017-11-26T10:09:38.366Z,30
2017-11-26T10:10:38.388Z,30
2017-11-26T10:11:38.371Z,30
2017-11-26T10:12:38.161Z,25
2017-11-26T10:14:38.448Z,25
2017-11-26T10:15:38.218Z,20
2017-11-26T10:16:53.095Z,20
2017-11-26T10:17:37.941Z,20
2017-11-26T10:18:38.492Z,20
2017-11-26T10:19:38.532Z,20
2017-11-26T10:20:38.509Z,20
2017-11-26T10:21:38.274Z,20
2017-11-26T10:22:38.561Z,25
2017-11-26T10:23:38.559Z,25
2017-11-26T10:24:38.617Z,30
2017-11-26T10:25:38.554Z,30
2017-11-26T10:27:38.413Z,35
2017-11-26T10:28:38.666Z,45
2017-11-26T10:29:53.318Z,45
2017-11-26T10:30:38.678Z,50
2017-11-26T10:31:38.665Z,50
2017-11-26T10:32:53.378Z,50
2017-11-26T10:33:38.735Z,50
2017-11-26T10:34:38.747Z,50
2017-11-26T10:35:38.784Z,55
2017-11-26T10:36:38.799Z,55
2017-11-26T10:37:38.810Z,60
2017-11-26T10:38:38.797Z,55
2017-11-26T10:39:38.782Z,55
2017-11-26T10:40:38.575Z,55
2017-11-26T10:41:38.860Z,55
2017-11-26T10:42:38.854Z,55
2017-11-26T10:43:38.870Z,50
2017-11-26T10:45:53.547Z,50
2017-11-26T10:46:38.421Z,50
2017-11-26T10:47:38.955Z,50
2017-11-26T10:48:38.964Z,50
2017-11-26T10:49:39.108Z,55
2017-11-26T10:50:53.668Z,65
2017-11-26T10:51:39.044Z,65
2017-11-26T10:52:53.711Z,70
2017-11-26T10:53:38.749Z,70
2017-11-26T10:54:53.810Z,75
2017-11-26T10:55:53.749Z,75
2017-11-26T10:56:53.516Z,80
2017-11-26T10:57:39.111Z,75
2017-11-26T10:58:38.866Z,80
2017-11-26T11:00:53.572Z,75
2017-11-26T11:01:38.886Z,75
2017-11-26T11:02:53.599Z,75
2017-11-26T11:03:39.254Z,75
2017-11-26T11:04:39.232Z,80
2017-11-26T11:05:38.982Z,75
2017-11-26T11:06:53.665Z,75
2017-11-26T11:07:39.323Z,75
2017-11-26T11:09:39.296Z,75
2017-11-26T11:10:53.758Z,75
2017-11-26T11:11:39.114Z,75
2017-11-26T11:12:39.387Z,80
2017-11-26T11:13:39.414Z,85
2017-11-26T11:14:39.407Z,85
2017-11-26T11:15:39.408Z,80
2017-11-26T11:16:54.222Z,70
2017-11-26T11:17:39.451Z,70
2017-11-26T11:18:39.478Z,60
2017-11-26T11:19:39.219Z,60
2017-11-26T11:20:54.168Z,65
2017-11-26T11:22:39.270Z,70
2017-11-26T11:23:39.303Z,75
2017-11-26T11:24:39.543Z,80
2017-11-26T11:25:39.301Z,95
2017-11-26T11:26:39.577Z,75
2017-11-26T11:27:54.278Z,75
2017-11-26T11:28:39.596Z,75
2017-11-26T11:29:39.383Z,70
2017-11-26T11:30:39.476Z,65
2017-11-26T11:31:39.686Z,65
2017-11-26T11:32:54.370Z,55
2017-11-26T11:33:39.695Z,55
2017-11-26T11:35:39.757Z,60
2017-11-26T11:37:39.794Z,55
2017-11-26T11:38:39.823Z,50
2017-11-26T11:39:39.806Z,45
2017-11-26T11:40:39.571Z,50
2017-11-26T11:41:39.577Z,45
2017-11-26T11:42:39.562Z,45
2017-11-26T11:43:39.870Z,45
2017-11-26T11:44:39.879Z,45
2017-11-26T11:45:39.645Z,45
2017-11-26T11:46:39.437Z,45
2017-11-26T11:47:39.932Z,45
2017-11-26T11:48:54.658Z,50
2017-11-26T11:49:54.385Z,50
2017-11-26T11:50:40.019Z,60
2017-11-26T11:51:40.026Z,75
2017-11-26T11:52:40.003Z,75
2017-11-26T11:53:54.916Z,65
2017-11-26T11:54:40.052Z,70
2017-11-26T11:55:40.117Z,80
2017-11-26T11:56:40.132Z,70
2017-11-26T11:57:40.141Z,70
2017-11-26T11:58:54.809Z,70
2017-11-26T11:59:39.898Z,70
2017-11-26T12:00:40.286Z,70
2017-11-26T12:01:54.818Z,70
2017-11-26T12:02:39.973Z,85
2017-11-26T12:03:40.226Z,90
2017-11-26T12:04:54.898Z,75
2017-11-26T12:05:40.270Z,75
2017-11-26T12:06:40.284Z,70
2017-11-26T12:07:40.026Z,70
2017-11-26T12:08:40.318Z,70
2017-11-26T12:09:40.292Z,65
2017-11-26T12:10:40.306Z,65
2017-11-26T12:11:40.396Z,65
2017-11-26T12:12:40.405Z,60
2017-11-26T12:13:55.039Z,60
2017-11-26T12:14:40.467Z,60
2017-11-26T12:15:40.190Z,60
2017-11-26T12:16:40.477Z,60
2017-11-26T12:17:40.165Z,55
2017-11-26T12:18:40.461Z,55
2017-11-26T12:19:54.877Z,50
2017-11-26T12:20:40.501Z,50
2017-11-26T12:21:40.532Z,50
2017-11-26T12:22:40.572Z,50
2017-11-26T12:23:55.208Z,50
2017-11-26T12:24:40.590Z,50
2017-11-26T12:25:40.596Z,50
2017-11-26T12:26:40.598Z,50
2017-11-26T12:27:40.613Z,45
2017-11-26T12:28:40.641Z,45
2017-11-26T12:29:40.698Z,40
2017-11-26T12:30:40.815Z,40
2017-11-26T12:31:40.669Z,40
2017-11-26T12:32:40.739Z,40
2017-11-26T12:33:40.730Z,35
2017-11-26T12:34:40.743Z,35
2017-11-26T12:35:40.500Z,30
2017-11-26T12:36:40.279Z,35
2017-11-26T12:37:40.503Z,35
2017-11-26T12:38:40.809Z,30
2017-11-26T12:39:40.542Z,30
2017-11-26T12:40:40.323Z,25
2017-11-26T12:41:40.826Z,30
2017-11-26T12:42:40.598Z,30
2017-11-26T12:43:55.567Z,25
2017-11-26T12:44:40.920Z,20
2017-11-26T12:45:40.692Z,20
2017-11-26T12:46:55.620Z,15
2017-11-26T12:47:40.960Z,20
2017-11-26T12:48:40.748Z,20
2017-11-26T12:49:40.971Z,20
2017-11-26T12:50:41.010Z,25
2017-11-26T12:51:55.680Z,20
2017-11-26T12:53:10.506Z,20
2017-11-26T12:53:41.038Z,20
2017-11-26T12:54:41.096Z,20
2017-11-26T12:55:41.101Z,20
2017-11-26T12:56:55.773Z,20
2017-11-26T12:57:55.784Z,15
2017-11-26T12:58:41.152Z,15
2017-11-26T12:59:41.197Z,15
2017-11-26T13:00:55.869Z,10
2017-11-26T13:01:55.872Z,15
2017-11-26T13:02:41.229Z,15
2017-11-26T13:03:41.225Z,10
2017-11-26T13:04:41.008Z,10
2017-11-26T13:05:41.242Z,10
2017-11-26T13:06:55.923Z,10
2017-11-26T13:07:55.974Z,10
2017-11-26T13:08:41.305Z,10
2017-11-26T13:09:41.349Z,10
2017-11-26T13:10:56.044Z,10
2017-11-26T13:11:56.033Z,5
2017-11-26T13:12:41.399Z,5
2017-11-26T13:13:41.407Z,5
2017-11-26T13:14:41.192Z,10
2017-11-26T13:15:41.447Z,10
2017-11-26T13:16:55.874Z,10
2017-11-26T13:17:56.138Z,10
2017-11-26T13:18:41.488Z,15
2017-11-26T13:19:55.886Z,15
2017-11-26T13:20:41.268Z,15
2017-11-26T13:21:56.210Z,15
2017-11-26T13:22:41.544Z,10
2017-11-26T13:23:56.255Z,10
2017-11-26T13:24:41.589Z,10
2017-11-26T13:26:41.616Z,10
2017-11-26T13:27:41.620Z,10
2017-11-26T13:28:41.620Z,10
2017-11-26T13:29:41.652Z,10
2017-11-26T13:30:41.680Z,15
2017-11-26T13:31:56.381Z,15
2017-11-26T13:32:41.437Z,15
2017-11-26T13:34:41.229Z,15
2017-11-26T13:35:41.861Z,15
2017-11-26T13:36:41.803Z,15
2017-11-26T13:37:41.799Z,10
2017-11-26T13:38:41.563Z,10
2017-11-26T13:39:56.243Z,10
2017-11-26T13:40:56.249Z,15
2017-11-26T13:41:41.573Z,15
2017-11-26T13:43:41.891Z,10
2017-11-26T13:44:41.890Z,10
2017-11-26T13:45:42.018Z,10
2017-11-26T13:46:41.922Z,5
2017-11-26T13:47:41.469Z,5
2017-11-26T13:48:41.961Z,5
2017-11-26T13:49:41.959Z,10
2017-11-26T13:50:42.034Z,10
2017-11-26T13:51:42.049Z,10
2017-11-26T13:52:42.043Z,10
2017-11-26T13:53:42.012Z,10
2017-11-26T13:54:56.717Z,10
2017-11-26T13:55:42.109Z,10
2017-11-26T13:56:42.099Z,10
2017-11-26T13:57:41.889Z,10
2017-11-26T13:58:42.187Z,15
2017-11-26T13:59:42.180Z,15
2017-11-26T14:00:42.217Z,10
2017-11-26T14:01:41.937Z,10
2017-11-26T14:02:42.227Z,10
2017-11-26T14:03:56.894Z,10
2017-11-26T14:06:42.289Z,5
2017-11-26T14:07:42.268Z,5
2017-11-26T14:09:56.741Z,5
2017-11-26T14:10:42.369Z,5
2017-11-26T14:11:42.350Z,10
2017-11-26T14:12:42.363Z,10
2017-11-26T14:13:42.396Z,10
2017-11-26T14:14:42.475Z,5
2017-11-26T14:15:42.450Z,5
2017-11-26T14:16:42.450Z,5
2017-11-26T14:18:42.469Z,5
2017-11-26T14:19:42.483Z,5
2017-11-26T14:20:41.983Z,5
2017-11-26T14:21:42.528Z,5
2017-11-26T14:23:42.509Z,5
2017-11-26T14:24:57.233Z,5
2017-11-26T14:25:42.581Z,5
2017-11-26T14:27:42.659Z,5
2017-11-26T14:28:42.636Z,5
2017-11-26T14:29:42.654Z,5
2017-11-26T14:30:42.660Z,5
2017-11-26T14:32:42.468Z,5
2017-11-26T14:33:42.760Z,5
2017-11-26T14:34:42.765Z,5
2017-11-26T14:35:57.425Z,5
2017-11-26T14:38:42.804Z,0
2017-11-26T14:39:42.826Z,0
2017-11-26T14:40:42.882Z,0
2017-11-26T14:41:42.877Z,0
2017-11-26T14:42:57.554Z,0
2017-11-26T14:43:42.657Z,0
2017-11-26T14:44:42.899Z,0
2017-11-26T14:46:42.937Z,0
2017-11-26T14:47:42.945Z,0
2017-11-26T14:48:57.595Z,0
2017-11-26T14:49:42.985Z,0
2017-11-26T14:50:42.744Z,0
2017-11-26T14:51:43.014Z,0
2017-11-26T14:52:43.114Z,0
2017-11-26T14:53:57.702Z,0
2017-11-26T14:54:43.039Z,0
2017-11-26T14:55:43.106Z,0
2017-11-26T14:56:43.109Z,0
2017-11-26T14:57:57.523Z,0
2017-11-26T14:58:57.524Z,0
2017-11-26T14:59:43.146Z,0
2017-11-26T15:00:43.159Z,0
2017-11-26T15:01:43.202Z,0
2017-11-26T15:02:57.868Z,0
2017-11-26T15:03:43.189Z,0
2017-11-26T15:04:43.072Z,0
2017-11-26T15:05:43.270Z,0
2017-11-26T15:06:43.279Z,0
2017-11-26T15:07:43.009Z,0
2017-11-26T15:08:43.309Z,0
2017-11-26T15:09:43.347Z,0
2017-11-26T15:10:43.042Z,0
2017-11-26T15:11:43.341Z,0
2017-11-26T15:13:43.386Z,0
2017-11-26T15:14:58.061Z,0
2017-11-26T15:15:43.167Z,0
2017-11-26T15:16:43.506Z,0
2017-11-26T15:17:43.437Z,0
2017-11-26T15:18:43.451Z,0
2017-11-26T15:19:43.217Z,0
2017-11-26T15:20:43.495Z,0
2017-11-26T15:21:43.498Z,0
2017-11-26T15:22:43.540Z,0
2017-11-26T15:23:43.015Z,0
2017-11-26T15:24:43.558Z,0
2017-11-26T15:25:58.229Z,0
2017-11-26T15:26:58.249Z,0
2017-11-26T15:27:58.003Z,0
2017-11-26T15:28:43.382Z,0
2017-11-26T15:30:43.359Z,0